createdAt,value
2023-03-31T00:01:10.058Z,16.80
2023-03-31T00:03:44.185Z,16.90
2023-03-31T00:06:18.344Z,16.80
2023-03-31T00:08:51.646Z,16.80
2023-03-31T00:11:21.337Z,16.80
2023-03-31T00:13:49.774Z,16.80
2023-03-31T00:16:18.687Z,16.80
2023-03-31T00:18:50.625Z,16.80
2023-03-31T00:21:29.479Z,16.80
2023-03-31T00:23:59.521Z,16.80
2023-03-31T00:26:28.022Z,16.80
2023-03-31T00:28:56.486Z,16.80
2023-03-31T00:31:24.824Z,16.80
2023-03-31T00:33:54.983Z,16.80
2023-03-31T00:36:27.443Z,16.80
2023-03-31T00:38:56.625Z,16.80
2023-03-31T00:41:24.459Z,16.80
2023-03-31T00:44:09.559Z,16.80
2023-03-31T00:46:44.074Z,16.80
2023-03-31T00:49:25.569Z,16.80
2023-03-31T00:51:57.956Z,16.80
2023-03-31T00:54:28.230Z,16.80
2023-03-31T00:57:03.112Z,16.80
2023-03-31T00:59:37.927Z,16.80
2023-03-31T01:02:06.438Z,16.80
2023-03-31T01:04:42.465Z,16.80
2023-03-31T01:07:19.070Z,16.80
2023-03-31T01:09:48.973Z,16.80
2023-03-31T01:12:19.451Z,16.80
2023-03-31T01:14:47.881Z,16.80
2023-03-31T01:17:19.210Z,16.80
2023-03-31T01:20:13.791Z,16.70
2023-03-31T01:23:17.977Z,16.70
2023-03-31T01:26:21.304Z,16.70
2023-03-31T01:28:57.195Z,16.70
2023-03-31T01:32:13.501Z,16.70
2023-03-31T01:35:11.090Z,16.70
2023-03-31T01:38:19.837Z,16.70
2023-03-31T01:41:12.851Z,16.70
2023-03-31T01:43:51.652Z,16.70
2023-03-31T01:46:29.438Z,16.70
2023-03-31T01:49:13.727Z,16.70
2023-03-31T01:51:53.769Z,16.70
2023-03-31T01:54:32.812Z,16.70
2023-03-31T01:57:13.111Z,16.70
2023-03-31T01:59:51.129Z,16.70
2023-03-31T02:02:26.981Z,16.70
2023-03-31T02:05:01.583Z,16.70
2023-03-31T02:07:36.832Z,16.70
2023-03-31T02:10:10.239Z,16.70
2023-03-31T02:12:44.121Z,16.70
2023-03-31T02:15:18.303Z,16.70
2023-03-31T02:17:50.920Z,16.70
2023-03-31T02:20:23.328Z,16.70
2023-03-31T02:22:56.065Z,16.70
2023-03-31T02:25:31.826Z,16.70
2023-03-31T02:28:09.069Z,16.70
2023-03-31T02:30:49.771Z,16.70
2023-03-31T02:33:17.838Z,16.70
2023-03-31T02:35:45.942Z,16.70
2023-03-31T02:38:14.075Z,16.70
2023-03-31T02:40:42.456Z,16.70
2023-03-31T02:43:12.105Z,16.70
2023-03-31T02:45:45.799Z,16.70
2023-03-31T02:48:20.409Z,16.70
2023-03-31T02:51:28.927Z,16.60
2023-03-31T02:54:59.144Z,16.60
2023-03-31T02:57:49.517Z,16.60
2023-03-31T03:00:31.117Z,16.60
2023-03-31T03:03:21.301Z,16.50
2023-03-31T03:06:03.831Z,16.60
2023-03-31T03:09:17.047Z,16.60
2023-03-31T03:11:54.984Z,16.60
2023-03-31T03:14:36.436Z,16.60
2023-03-31T03:17:11.504Z,16.60
2023-03-31T03:19:39.379Z,16.60
2023-03-31T03:22:09.210Z,16.60
2023-03-31T03:24:37.297Z,16.60
2023-03-31T03:27:05.191Z,16.60
2023-03-31T03:29:33.061Z,16.60
2023-03-31T03:32:00.898Z,16.70
2023-03-31T03:34:30.119Z,16.60
2023-03-31T03:36:58.323Z,16.70
2023-03-31T03:39:26.221Z,16.70
2023-03-31T03:41:54.106Z,16.70
2023-03-31T03:44:21.999Z,16.70
2023-03-31T03:46:49.932Z,16.70
2023-03-31T03:49:18.024Z,16.70
2023-03-31T03:51:47.440Z,16.70
2023-03-31T03:54:15.441Z,16.70
2023-03-31T03:56:43.331Z,16.70
2023-03-31T03:59:12.569Z,16.70
2023-03-31T04:01:40.846Z,16.70
2023-03-31T04:04:08.921Z,16.70
2023-03-31T04:06:37.038Z,16.70
2023-03-31T04:09:06.444Z,16.70
2023-03-31T04:11:34.420Z,16.70
2023-03-31T04:14:02.355Z,16.70
2023-03-31T04:16:30.793Z,16.70
2023-03-31T04:18:59.685Z,16.70
2023-03-31T04:21:27.630Z,16.70
2023-03-31T04:24:01.618Z,16.70
2023-03-31T04:26:39.032Z,16.70
2023-03-31T04:29:07.579Z,16.70
2023-03-31T04:31:38.553Z,16.70
2023-03-31T04:34:13.076Z,16.70
2023-03-31T04:36:47.001Z,16.70
2023-03-31T04:39:16.636Z,16.70
2023-03-31T04:41:46.289Z,16.70
2023-03-31T04:44:14.206Z,16.70
2023-03-31T04:46:42.100Z,16.70
2023-03-31T04:49:09.937Z,16.70
2023-03-31T04:51:37.789Z,16.70
2023-03-31T04:54:05.980Z,16.70
2023-03-31T04:56:34.118Z,16.70
2023-03-31T04:59:04.380Z,16.70
2023-03-31T05:01:36.127Z,16.70
2023-03-31T05:04:05.542Z,16.70
2023-03-31T05:06:34.049Z,16.70
2023-03-31T05:09:02.052Z,16.70
2023-03-31T05:11:29.964Z,16.70
2023-03-31T05:13:57.905Z,16.70
2023-03-31T05:16:27.138Z,16.70
2023-03-31T05:18:55.871Z,16.70
2023-03-31T05:21:24.201Z,16.70
2023-03-31T05:23:52.237Z,16.70
2023-03-31T05:26:22.299Z,16.70
2023-03-31T05:28:50.321Z,16.70
2023-03-31T05:31:18.680Z,16.70
2023-03-31T05:33:47.992Z,16.70
2023-03-31T05:36:18.757Z,16.70
2023-03-31T05:38:47.617Z,16.70
2023-03-31T05:41:16.835Z,16.70
2023-03-31T05:43:44.724Z,16.70
2023-03-31T05:46:12.673Z,16.80
2023-03-31T05:48:41.280Z,16.80
2023-03-31T05:51:10.598Z,16.80
2023-03-31T05:53:38.542Z,16.80
2023-03-31T05:56:08.381Z,16.80
2023-03-31T05:58:37.873Z,16.80
2023-03-31T06:01:08.737Z,16.80
2023-03-31T06:03:41.049Z,16.80
2023-03-31T06:06:12.950Z,16.80
2023-03-31T06:08:40.984Z,16.80
2023-03-31T06:11:12.150Z,16.80
2023-03-31T06:13:40.987Z,16.80
2023-03-31T06:16:12.217Z,16.80
2023-03-31T06:18:41.680Z,16.90
2023-03-31T06:21:13.694Z,16.80
2023-03-31T06:23:41.714Z,16.90
2023-03-31T06:26:09.883Z,16.90
2023-03-31T06:28:37.836Z,16.90
2023-03-31T06:31:08.823Z,16.90
2023-03-31T06:33:37.404Z,16.90
2023-03-31T06:36:06.851Z,17.00
2023-03-31T06:38:38.694Z,17.00
2023-03-31T06:41:07.637Z,17.00
2023-03-31T06:43:36.611Z,17.00
2023-03-31T06:46:05.146Z,17.00
2023-03-31T06:48:33.128Z,17.10
2023-03-31T06:51:04.345Z,17.10
2023-03-31T06:53:32.333Z,17.10
2023-03-31T06:56:02.274Z,17.10
2023-03-31T06:58:31.632Z,17.20
2023-03-31T07:00:59.890Z,17.20
2023-03-31T07:03:29.570Z,17.20
2023-03-31T07:05:57.871Z,17.30
2023-03-31T07:08:26.256Z,17.30
2023-03-31T07:10:58.559Z,17.30
2023-03-31T07:13:28.951Z,17.30
2023-03-31T07:15:57.744Z,17.40
2023-03-31T07:18:34.314Z,17.40
2023-03-31T07:21:04.037Z,17.40
2023-03-31T07:23:33.859Z,17.50
2023-03-31T07:26:02.559Z,17.50
2023-03-31T07:28:33.021Z,17.50
2023-03-31T07:31:01.218Z,17.50
2023-03-31T07:33:29.154Z,17.60
2023-03-31T07:36:11.046Z,17.60
2023-03-31T07:38:40.606Z,17.60
2023-03-31T07:41:12.870Z,17.60
2023-03-31T07:43:42.313Z,17.70
2023-03-31T07:46:20.380Z,17.60
2023-03-31T07:48:49.983Z,17.70
2023-03-31T07:51:20.458Z,17.80
2023-03-31T07:53:52.081Z,17.80
2023-03-31T07:56:21.249Z,17.80
2023-03-31T07:58:51.672Z,17.80
2023-03-31T08:01:25.820Z,17.90
2023-03-31T08:03:55.669Z,17.90
2023-03-31T08:06:26.903Z,17.90
2023-03-31T08:08:55.194Z,17.90
2023-03-31T08:11:24.209Z,18.00
2023-03-31T08:13:54.124Z,18.00
2023-03-31T08:16:22.044Z,18.00
2023-03-31T08:18:49.980Z,18.10
2023-03-31T08:21:17.888Z,18.10
2023-03-31T08:23:45.780Z,18.10
2023-03-31T08:26:18.214Z,18.10
2023-03-31T08:28:48.537Z,18.20
2023-03-31T08:31:20.417Z,18.20
2023-03-31T08:33:48.583Z,18.20
2023-03-31T08:36:16.610Z,18.20
2023-03-31T08:38:47.285Z,18.20
2023-03-31T08:41:33.819Z,18.20
2023-03-31T08:44:06.751Z,18.20
2023-03-31T08:46:36.701Z,18.30
2023-03-31T08:49:06.917Z,18.30
2023-03-31T08:51:42.098Z,18.20
2023-03-31T08:54:18.773Z,18.30
2023-03-31T08:56:51.712Z,18.30
2023-03-31T08:59:28.146Z,18.30
2023-03-31T09:02:06.934Z,18.30
2023-03-31T09:05:07.646Z,18.20
2023-03-31T09:07:49.715Z,18.30
2023-03-31T09:10:44.525Z,18.20
2023-03-31T09:13:36.965Z,18.20
2023-03-31T09:16:16.509Z,18.20
2023-03-31T09:18:46.824Z,18.30
2023-03-31T09:21:23.609Z,18.30
2023-03-31T09:24:00.131Z,18.30
2023-03-31T09:26:38.173Z,18.30
2023-03-31T09:29:18.530Z,18.30
2023-03-31T09:31:47.517Z,18.30
2023-03-31T09:34:25.236Z,18.30
2023-03-31T09:36:53.756Z,18.30
2023-03-31T09:39:22.197Z,18.30
2023-03-31T09:41:53.934Z,18.30
2023-03-31T09:44:31.034Z,18.30
2023-03-31T09:47:03.445Z,18.30
2023-03-31T09:49:37.370Z,18.30
2023-03-31T09:52:15.415Z,18.30
2023-03-31T09:54:50.806Z,18.30
2023-03-31T09:57:28.950Z,18.30
2023-03-31T10:00:14.114Z,18.30
2023-03-31T10:02:45.806Z,18.30
2023-03-31T10:05:32.401Z,18.30
2023-03-31T10:08:24.322Z,18.30
2023-03-31T10:10:55.438Z,18.30
2023-03-31T10:13:27.064Z,18.30
2023-03-31T10:16:02.804Z,18.30
2023-03-31T10:18:36.181Z,18.30
2023-03-31T10:21:07.892Z,18.30
2023-03-31T10:23:37.164Z,18.40
2023-03-31T10:26:06.410Z,18.40
2023-03-31T10:28:37.026Z,18.40
2023-03-31T10:31:06.410Z,18.40
2023-03-31T10:33:41.791Z,18.40
2023-03-31T10:36:22.291Z,18.40
2023-03-31T10:38:52.518Z,18.40
2023-03-31T10:41:23.676Z,18.40
2023-03-31T10:43:54.799Z,18.40
2023-03-31T10:46:41.455Z,18.40
2023-03-31T10:49:24.615Z,18.40
2023-03-31T10:51:56.505Z,18.40
2023-03-31T10:54:24.631Z,18.40
2023-03-31T10:56:56.927Z,18.40
2023-03-31T10:59:44.762Z,18.30
2023-03-31T11:03:02.582Z,18.30
2023-03-31T11:05:39.157Z,18.30
2023-03-31T11:08:31.114Z,18.30
2023-03-31T11:11:24.075Z,18.30
2023-03-31T11:14:03.780Z,18.30
2023-03-31T11:16:46.711Z,18.30
2023-03-31T11:19:31.331Z,18.30
2023-03-31T11:22:10.696Z,18.30
2023-03-31T11:25:06.407Z,18.30
2023-03-31T11:28:00.704Z,18.30
2023-03-31T11:30:34.668Z,18.30
2023-03-31T11:33:30.565Z,18.30
2023-03-31T11:36:18.950Z,18.30
2023-03-31T11:39:01.864Z,18.30
2023-03-31T11:41:38.644Z,18.30
2023-03-31T11:44:12.484Z,18.30
2023-03-31T11:46:48.148Z,18.30
2023-03-31T11:49:23.691Z,18.30
2023-03-31T11:51:56.407Z,18.30
2023-03-31T11:54:32.633Z,18.30
2023-03-31T11:57:19.731Z,18.30
2023-03-31T11:59:56.121Z,18.30
2023-03-31T12:02:39.621Z,18.30
2023-03-31T12:05:12.704Z,18.30
2023-03-31T12:07:48.682Z,18.30
2023-03-31T12:10:22.731Z,18.30
2023-03-31T12:13:02.568Z,18.30
2023-03-31T12:15:39.190Z,18.20
2023-03-31T12:18:15.119Z,18.20
2023-03-31T12:20:48.727Z,18.20
2023-03-31T12:23:21.320Z,18.20
2023-03-31T12:25:59.012Z,18.20
2023-03-31T12:28:29.765Z,18.20
2023-03-31T12:31:01.947Z,18.20
2023-03-31T12:33:38.050Z,18.20
2023-03-31T12:36:21.403Z,18.20
2023-03-31T12:39:12.419Z,18.20
2023-03-31T12:41:54.168Z,18.20
2023-03-31T12:44:45.858Z,18.10
2023-03-31T12:47:30.391Z,18.10
2023-03-31T12:50:28.705Z,18.10
2023-03-31T12:53:06.712Z,18.10
2023-03-31T12:55:38.930Z,18.10
2023-03-31T12:58:42.485Z,18.10
2023-03-31T13:01:16.948Z,18.10
2023-03-31T13:03:55.213Z,18.10
2023-03-31T13:06:53.749Z,18.10
2023-03-31T13:09:46.458Z,18.00
2023-03-31T13:12:21.607Z,18.10
2023-03-31T13:14:54.189Z,18.10
2023-03-31T13:17:31.131Z,18.10
2023-03-31T13:20:25.586Z,18.00
2023-03-31T13:23:03.352Z,18.00
2023-03-31T13:25:44.686Z,18.10
2023-03-31T13:28:38.704Z,18.00
2023-03-31T13:31:09.088Z,18.10
2023-03-31T13:33:48.152Z,18.00
2023-03-31T13:36:58.214Z,18.00
2023-03-31T13:39:53.121Z,18.00
2023-03-31T13:42:56.173Z,18.00
2023-03-31T13:45:48.806Z,18.00
2023-03-31T13:48:38.166Z,18.00
2023-03-31T13:51:36.256Z,17.90
2023-03-31T13:54:45.694Z,18.00
2023-03-31T13:57:50.002Z,18.00
2023-03-31T14:00:46.217Z,17.90
2023-03-31T14:03:50.055Z,17.90
2023-03-31T14:06:32.922Z,18.00
2023-03-31T14:09:07.027Z,18.00
2023-03-31T14:11:35.037Z,18.00
2023-03-31T14:14:06.349Z,18.00
2023-03-31T14:16:39.635Z,18.00
2023-03-31T14:19:49.284Z,18.00
2023-03-31T14:22:32.456Z,18.00
2023-03-31T14:25:15.693Z,18.00
2023-03-31T14:28:02.431Z,18.00
2023-03-31T14:30:43.428Z,18.00
2023-03-31T14:33:29.965Z,18.00
2023-03-31T14:36:08.144Z,18.00
2023-03-31T14:38:37.724Z,18.00
2023-03-31T14:41:06.258Z,18.10
2023-03-31T14:43:40.979Z,18.00
2023-03-31T14:46:10.765Z,18.00
2023-03-31T14:48:47.164Z,18.00
2023-03-31T14:51:17.789Z,18.00
2023-03-31T14:53:47.102Z,18.10
2023-03-31T14:56:21.460Z,18.10
2023-03-31T14:58:54.333Z,18.10
2023-03-31T15:01:30.175Z,18.00
2023-03-31T15:03:58.579Z,18.10
2023-03-31T15:06:27.642Z,18.10
2023-03-31T15:09:02.656Z,18.00
2023-03-31T15:11:32.513Z,18.10
2023-03-31T15:14:05.575Z,18.10
2023-03-31T15:16:41.912Z,18.10
2023-03-31T15:19:17.259Z,18.00
2023-03-31T15:21:46.730Z,18.00
2023-03-31T15:24:16.414Z,18.10
2023-03-31T15:26:49.309Z,18.00
2023-03-31T15:29:23.062Z,18.00
2023-03-31T15:31:51.467Z,18.10
2023-03-31T15:34:27.688Z,18.00
2023-03-31T15:36:57.593Z,18.00
2023-03-31T15:39:30.959Z,18.00
2023-03-31T15:42:01.839Z,18.00
2023-03-31T15:44:37.772Z,18.00
2023-03-31T15:47:17.693Z,18.00
2023-03-31T15:49:53.018Z,18.00
2023-03-31T15:52:27.279Z,18.00
2023-03-31T15:54:57.183Z,18.00
2023-03-31T15:57:34.818Z,17.90
2023-03-31T16:00:07.210Z,17.90
2023-03-31T16:02:46.388Z,18.00
2023-03-31T16:05:43.596Z,17.90
2023-03-31T16:08:28.237Z,17.90
2023-03-31T16:11:04.376Z,17.90
2023-03-31T16:13:34.286Z,18.00
2023-03-31T16:16:02.324Z,18.00
2023-03-31T16:18:36.546Z,17.90
2023-03-31T16:21:09.507Z,17.90
2023-03-31T16:23:41.698Z,17.90
2023-03-31T16:26:11.561Z,17.90
2023-03-31T16:28:39.581Z,17.90
2023-03-31T16:31:35.448Z,17.90
2023-03-31T16:34:05.946Z,17.90
2023-03-31T16:36:34.029Z,17.90
2023-03-31T16:39:05.044Z,17.90
2023-03-31T16:41:34.860Z,17.90
2023-03-31T16:44:03.048Z,17.90
2023-03-31T16:46:32.387Z,17.90
2023-03-31T16:49:00.351Z,17.90
2023-03-31T16:51:28.364Z,17.90
2023-03-31T16:53:58.868Z,17.90
2023-03-31T16:56:27.688Z,17.90
2023-03-31T16:58:56.243Z,17.90
2023-03-31T17:01:24.206Z,17.90
2023-03-31T17:03:54.043Z,17.90
2023-03-31T17:06:22.045Z,17.90
2023-03-31T17:08:49.908Z,17.90
2023-03-31T17:11:17.813Z,17.80
2023-03-31T17:13:46.472Z,17.80
2023-03-31T17:16:21.990Z,17.80
2023-03-31T17:18:56.063Z,17.80
2023-03-31T17:21:24.507Z,17.80
2023-03-31T17:23:52.461Z,17.80
2023-03-31T17:26:20.490Z,17.80
2023-03-31T17:28:48.422Z,17.80
2023-03-31T17:31:19.428Z,17.70
2023-03-31T17:33:47.637Z,17.70
2023-03-31T17:36:17.978Z,17.70
2023-03-31T17:38:45.912Z,17.70
2023-03-31T17:41:17.546Z,17.70
2023-03-31T17:43:46.911Z,17.70
2023-03-31T17:46:15.426Z,17.70
2023-03-31T17:48:43.669Z,17.70
2023-03-31T17:51:16.961Z,17.60
2023-03-31T17:53:47.412Z,17.60
2023-03-31T17:56:17.586Z,17.60
2023-03-31T17:58:46.206Z,17.60
2023-03-31T18:01:15.167Z,17.60
2023-03-31T18:03:44.959Z,17.60
2023-03-31T18:06:17.755Z,17.60
2023-03-31T18:08:45.622Z,17.60
2023-03-31T18:11:13.738Z,17.60
2023-03-31T18:17:43.178Z,17.50
2023-03-31T18:20:12.974Z,17.50
2023-03-31T18:25:22.350Z,17.50
2023-03-31T18:27:50.571Z,17.50
2023-03-31T18:30:18.673Z,17.50
2023-03-31T18:32:46.628Z,17.50
2023-03-31T18:35:14.669Z,17.40
2023-03-31T18:37:44.915Z,17.40
2023-03-31T18:40:14.892Z,17.40
2023-03-31T18:42:44.126Z,17.40
2023-03-31T18:45:12.577Z,17.40
2023-03-31T18:47:40.521Z,17.40
2023-03-31T18:50:09.565Z,17.40
2023-03-31T18:52:37.861Z,17.40
2023-03-31T18:55:06.851Z,17.40
2023-03-31T18:57:34.819Z,17.40
2023-03-31T19:00:05.624Z,17.40
2023-03-31T19:02:33.824Z,17.40
2023-03-31T19:05:02.014Z,17.40
2023-03-31T19:07:29.976Z,17.40
2023-03-31T19:09:58.035Z,17.40
2023-03-31T19:12:25.980Z,17.40
2023-03-31T19:14:53.900Z,17.40
2023-03-31T19:17:23.206Z,17.30
2023-03-31T19:19:51.179Z,17.30
2023-03-31T19:22:19.143Z,17.30
2023-03-31T19:24:47.079Z,17.30
2023-03-31T19:27:14.998Z,17.30
2023-03-31T19:29:42.899Z,17.30
2023-03-31T19:32:10.900Z,17.30
2023-03-31T19:34:40.161Z,17.30
2023-03-31T19:37:08.140Z,17.30
2023-03-31T19:39:36.248Z,17.30
2023-03-31T19:42:04.424Z,17.30
2023-03-31T19:44:32.445Z,17.30
2023-03-31T19:47:00.494Z,17.30
2023-03-31T19:49:28.596Z,17.30
2023-03-31T19:51:57.996Z,17.30
2023-03-31T19:54:26.045Z,17.30
2023-03-31T19:56:54.136Z,17.20
2023-03-31T19:59:22.206Z,17.30
2023-03-31T20:01:50.505Z,17.30
2023-03-31T20:04:18.857Z,17.30
2023-03-31T20:06:48.400Z,17.20
2023-03-31T20:09:18.818Z,17.20
2023-03-31T20:11:47.357Z,17.20
2023-03-31T20:14:15.599Z,17.20
2023-03-31T20:16:44.585Z,17.20
2023-03-31T20:19:14.704Z,17.20
2023-03-31T20:21:43.066Z,17.20
2023-03-31T20:24:16.636Z,17.20
2023-03-31T20:26:46.706Z,17.20
2023-03-31T20:29:14.791Z,17.20
2023-03-31T20:31:43.718Z,17.20
2023-03-31T20:34:16.700Z,17.20
2023-03-31T20:36:49.041Z,17.20
2023-03-31T20:39:18.384Z,17.10
2023-03-31T20:41:50.018Z,17.20
2023-03-31T20:44:18.725Z,17.20
2023-03-31T20:46:47.558Z,17.20
2023-03-31T20:49:15.787Z,17.20
2023-03-31T20:51:45.393Z,17.20
2023-03-31T20:54:13.492Z,17.20
2023-03-31T20:56:42.402Z,17.10
2023-03-31T20:59:16.002Z,17.10
2023-03-31T21:01:47.213Z,17.10
2023-03-31T21:04:17.028Z,17.10
2023-03-31T21:06:48.511Z,17.10
2023-03-31T21:09:17.562Z,17.10
2023-03-31T21:11:45.920Z,17.10
2023-03-31T21:14:16.889Z,17.10
2023-03-31T21:16:45.265Z,17.10
2023-03-31T21:19:13.434Z,17.10
2023-03-31T21:21:43.177Z,17.10
2023-03-31T21:24:12.909Z,17.10
2023-03-31T21:26:41.603Z,17.10
2023-03-31T21:29:09.601Z,17.10
2023-03-31T21:31:39.020Z,17.10
2023-03-31T21:34:07.104Z,17.10
2023-03-31T21:36:35.035Z,17.10
2023-03-31T21:39:03.127Z,17.10
2023-03-31T21:41:32.392Z,17.10
2023-03-31T21:44:02.535Z,17.10
2023-03-31T21:46:33.764Z,17.00
2023-03-31T21:49:03.533Z,17.00
2023-03-31T21:51:31.744Z,17.00
2023-03-31T21:54:00.157Z,17.00
2023-03-31T21:56:32.012Z,17.00
2023-03-31T21:59:01.251Z,17.00
2023-03-31T22:01:29.502Z,17.00
2023-03-31T22:03:57.933Z,17.00
2023-03-31T22:06:27.233Z,17.00
2023-03-31T22:08:55.391Z,17.00
2023-03-31T22:11:24.341Z,17.00
2023-03-31T22:13:52.315Z,17.00
2023-03-31T22:16:23.638Z,17.00
2023-03-31T22:18:52.879Z,17.00
2023-03-31T22:21:24.167Z,17.00
2023-03-31T22:23:55.114Z,17.00
2023-03-31T22:26:24.279Z,17.00
2023-03-31T22:28:52.492Z,17.00
2023-03-31T22:31:20.717Z,17.00
2023-03-31T22:33:49.482Z,17.00
2023-03-31T22:36:17.464Z,17.00
2023-03-31T22:38:45.740Z,17.00
2023-03-31T22:41:15.622Z,16.90
2023-03-31T22:43:45.874Z,17.00
2023-03-31T22:46:14.612Z,17.00
2023-03-31T22:48:42.728Z,16.90
2023-03-31T22:51:11.946Z,16.90
2023-03-31T22:53:39.928Z,16.90
2023-03-31T22:56:11.828Z,16.90
2023-03-31T22:58:41.283Z,16.90
2023-03-31T23:01:14.555Z,16.90
2023-03-31T23:03:42.897Z,16.90
2023-03-31T23:06:11.741Z,16.90
2023-03-31T23:08:40.776Z,16.90
2023-03-31T23:11:12.867Z,16.90
2023-03-31T23:13:42.239Z,16.90
2023-03-31T23:16:13.269Z,16.90
2023-03-31T23:18:45.796Z,16.90
2023-03-31T23:21:14.316Z,16.90
2023-03-31T23:23:42.996Z,16.90
2023-03-31T23:26:12.340Z,16.90
2023-03-31T23:28:42.578Z,16.90
2023-03-31T23:31:11.223Z,16.90
2023-03-31T23:33:39.118Z,16.90
2023-03-31T23:36:09.515Z,16.90
2023-03-31T23:38:37.537Z,16.90
2023-03-31T23:41:05.453Z,16.90
2023-03-31T23:43:33.368Z,16.90
2023-03-31T23:46:04.766Z,16.90
2023-03-31T23:48:33.016Z,16.80
2023-03-31T23:51:01.104Z,16.90
2023-03-31T23:53:29.521Z,16.90
2023-03-31T23:55:59.659Z,16.80
2023-03-31T23:58:28.168Z,16.90
